createdAt,value
2023-04-18T00:01:09.640Z,61.24
2023-04-18T00:03:37.123Z,60.95
2023-04-18T00:06:03.786Z,61.90
2023-04-18T00:08:30.264Z,62.84
2023-04-18T00:10:56.920Z,62.66
2023-04-18T00:13:23.425Z,63.39
2023-04-18T00:15:49.821Z,63.92
2023-04-18T00:18:17.223Z,64.39
2023-04-18T00:20:43.848Z,64.42
2023-04-18T00:23:13.941Z,65.41
2023-04-18T00:25:40.792Z,66.18
2023-04-18T00:28:07.195Z,65.92
2023-04-18T00:30:33.726Z,66.66
2023-04-18T00:33:00.417Z,66.55
2023-04-18T00:35:26.884Z,67.14
2023-04-18T00:37:53.343Z,67.34
2023-04-18T00:40:19.911Z,67.51
2023-04-18T00:42:46.409Z,68.57
2023-04-18T00:45:13.849Z,68.44
2023-04-18T00:47:40.344Z,68.17
2023-04-18T00:50:08.297Z,68.42
2023-04-18T00:52:35.814Z,68.77
2023-04-18T00:55:07.645Z,69.15
2023-04-18T00:57:34.746Z,69.51
2023-04-18T01:00:09.735Z,69.42
2023-04-18T01:02:37.401Z,69.80
2023-04-18T01:05:04.356Z,70.28
2023-04-18T01:07:33.392Z,69.97
2023-04-18T01:10:01.556Z,69.85
2023-04-18T01:12:28.013Z,69.80
2023-04-18T01:14:54.476Z,70.20
2023-04-18T01:17:22.363Z,70.17
2023-04-18T01:19:51.084Z,70.34
2023-04-18T01:22:18.810Z,70.56
2023-04-18T01:24:45.502Z,70.55
2023-04-18T01:27:13.434Z,70.35
2023-04-18T01:29:40.624Z,70.92
2023-04-18T01:32:07.322Z,71.20
2023-04-18T01:34:33.903Z,71.14
2023-04-18T01:37:00.347Z,71.43
2023-04-18T01:39:26.778Z,71.01
2023-04-18T01:41:53.148Z,71.65
2023-04-18T01:44:19.620Z,72.04
2023-04-18T01:46:46.048Z,71.93
2023-04-18T01:49:12.720Z,71.94
2023-04-18T01:51:39.397Z,72.45
2023-04-18T01:54:05.998Z,72.20
2023-04-18T01:56:32.456Z,72.19
2023-04-18T01:59:00.651Z,72.08
2023-04-18T02:01:27.691Z,72.50
2023-04-18T02:03:54.293Z,72.34
2023-04-18T02:06:20.883Z,72.26
2023-04-18T02:08:47.782Z,72.84
2023-04-18T02:11:14.192Z,73.00
2023-04-18T02:13:40.604Z,72.50
2023-04-18T02:16:12.510Z,72.47
2023-04-18T02:18:40.072Z,72.73
2023-04-18T02:21:07.086Z,72.80
2023-04-18T02:23:33.524Z,72.79
2023-04-18T02:25:59.940Z,73.55
2023-04-18T02:28:26.304Z,73.42
2023-04-18T02:30:52.875Z,73.41
2023-04-18T02:33:19.267Z,73.52
2023-04-18T02:35:45.713Z,73.76
2023-04-18T02:38:13.661Z,73.74
2023-04-18T02:40:40.096Z,73.57
2023-04-18T02:43:06.488Z,73.71
2023-04-18T02:45:33.043Z,74.09
2023-04-18T02:48:01.039Z,74.14
2023-04-18T02:50:28.936Z,73.98
2023-04-18T02:52:56.765Z,74.11
2023-04-18T02:55:28.758Z,74.13
2023-04-18T02:57:58.422Z,73.98
2023-04-18T03:00:58.520Z,74.16
2023-04-18T03:03:43.321Z,74.45
2023-04-18T03:06:32.734Z,74.34
2023-04-18T03:09:01.429Z,74.27
2023-04-18T03:11:28.097Z,74.57
2023-04-18T03:13:55.384Z,74.83
2023-04-18T03:16:24.439Z,74.89
2023-04-18T03:18:51.219Z,74.60
2023-04-18T03:21:19.392Z,75.01
2023-04-18T03:23:46.088Z,75.12
2023-04-18T03:26:13.773Z,75.49
2023-04-18T03:28:41.612Z,75.61
2023-04-18T03:31:08.795Z,75.56
2023-04-18T03:33:39.153Z,75.75
2023-04-18T03:36:09.244Z,76.00
2023-04-18T03:38:36.115Z,76.21
2023-04-18T03:41:02.814Z,76.62
2023-04-18T03:43:33.250Z,76.43
2023-04-18T03:45:59.794Z,75.79
2023-04-18T03:48:26.981Z,76.08
2023-04-18T03:50:53.890Z,76.27
2023-04-18T03:53:20.458Z,76.08
2023-04-18T03:55:47.765Z,76.14
2023-04-18T03:58:17.977Z,76.41
2023-04-18T04:00:44.403Z,76.25
2023-04-18T04:03:11.415Z,76.51
2023-04-18T04:05:39.523Z,76.83
2023-04-18T04:08:06.281Z,76.40
2023-04-18T04:10:33.839Z,76.35
2023-04-18T04:13:00.251Z,76.61
2023-04-18T04:15:27.441Z,76.43
2023-04-18T04:18:00.460Z,76.40
2023-04-18T04:20:27.689Z,76.38
2023-04-18T04:23:02.034Z,76.13
2023-04-18T04:25:30.747Z,75.87
2023-04-18T04:28:01.415Z,75.92
2023-04-18T04:30:28.580Z,76.25
2023-04-18T04:32:55.166Z,76.13
2023-04-18T04:35:22.104Z,75.91
2023-04-18T04:37:48.553Z,76.08
2023-04-18T04:40:24.651Z,75.84
2023-04-18T04:43:05.997Z,75.40
2023-04-18T04:45:39.499Z,75.81
2023-04-18T04:48:06.084Z,75.51
2023-04-18T04:50:40.939Z,75.68
2023-04-18T04:53:09.700Z,75.50
2023-04-18T04:55:36.111Z,75.75
2023-04-18T04:58:04.192Z,75.84
2023-04-18T05:00:52.420Z,76.03
2023-04-18T05:03:19.808Z,75.68
2023-04-18T05:05:46.342Z,75.72
2023-04-18T05:08:12.716Z,75.56
2023-04-18T05:10:39.325Z,75.38
2023-04-18T05:13:05.756Z,75.47
2023-04-18T05:15:32.566Z,76.00
2023-04-18T05:17:59.315Z,75.15
2023-04-18T05:20:26.940Z,74.74
2023-04-18T05:22:53.334Z,74.83
2023-04-18T05:25:19.945Z,75.07
2023-04-18T05:27:46.994Z,75.03
2023-04-18T05:30:13.725Z,74.91
2023-04-18T05:32:40.321Z,74.47
2023-04-18T05:35:07.614Z,73.80
2023-04-18T05:37:34.263Z,74.42
2023-04-18T05:40:01.137Z,74.00
2023-04-18T05:42:27.670Z,74.02
2023-04-18T05:44:54.066Z,74.27
2023-04-18T05:47:20.999Z,73.54
2023-04-18T05:49:47.504Z,73.88
2023-04-18T05:52:13.871Z,73.78
2023-04-18T05:54:41.049Z,73.22
2023-04-18T05:57:07.402Z,73.14
2023-04-18T05:59:33.790Z,73.61
2023-04-18T06:02:00.675Z,73.74
2023-04-18T06:04:27.132Z,73.63
2023-04-18T06:06:53.698Z,72.82
2023-04-18T06:09:20.156Z,73.43
2023-04-18T06:11:46.824Z,73.74
2023-04-18T06:14:13.509Z,73.85
2023-04-18T06:16:40.230Z,73.98
2023-04-18T06:19:06.725Z,73.47
2023-04-18T06:21:33.198Z,73.60
2023-04-18T06:24:01.265Z,73.82
2023-04-18T06:26:27.786Z,73.43
2023-04-18T06:28:54.161Z,73.77
2023-04-18T06:31:21.097Z,73.38
2023-04-18T06:33:47.465Z,73.28
2023-04-18T06:36:13.864Z,73.45
2023-04-18T06:38:40.361Z,74.13
2023-04-18T06:41:06.737Z,73.89
2023-04-18T06:43:33.168Z,73.51
2023-04-18T06:46:01.032Z,73.72
2023-04-18T06:48:27.536Z,72.64
2023-04-18T06:50:53.891Z,72.87
2023-04-18T06:53:20.399Z,72.84
2023-04-18T06:55:46.800Z,72.58
2023-04-18T06:58:15.957Z,72.40
2023-04-18T07:00:43.206Z,72.21
2023-04-18T07:03:13.533Z,72.76
2023-04-18T07:05:40.465Z,73.02
2023-04-18T07:08:07.117Z,73.63
2023-04-18T07:10:33.558Z,74.40
2023-04-18T07:13:00.000Z,74.15
2023-04-18T07:15:26.556Z,73.88
2023-04-18T07:17:53.054Z,74.30
2023-04-18T07:20:19.637Z,74.50
2023-04-18T07:22:47.863Z,74.69
2023-04-18T07:25:14.278Z,74.63
2023-04-18T07:27:40.697Z,74.49
2023-04-18T07:30:07.671Z,74.34
2023-04-18T07:32:34.586Z,74.16
2023-04-18T07:35:01.228Z,73.91
2023-04-18T07:37:27.755Z,74.06
2023-04-18T07:39:54.270Z,73.55
2023-04-18T07:42:20.660Z,73.07
2023-04-18T07:44:47.417Z,74.43
2023-04-18T07:47:13.788Z,73.79
2023-04-18T07:49:40.210Z,74.12
2023-04-18T07:52:07.156Z,74.37
2023-04-18T07:54:33.628Z,74.86
2023-04-18T07:57:00.734Z,74.40
2023-04-18T07:59:27.733Z,75.03
2023-04-18T08:01:54.228Z,74.94
2023-04-18T08:04:20.980Z,74.36
2023-04-18T08:06:47.440Z,74.82
2023-04-18T08:09:14.129Z,73.73
2023-04-18T08:11:42.402Z,73.66
2023-04-18T08:14:08.786Z,74.16
2023-04-18T08:16:35.330Z,73.41
2023-04-18T08:19:01.816Z,73.00
2023-04-18T08:21:28.195Z,73.17
2023-04-18T08:23:54.648Z,72.93
2023-04-18T08:26:21.812Z,73.19
2023-04-18T08:28:48.322Z,73.61
2023-04-18T08:31:16.231Z,73.39
2023-04-18T08:33:42.895Z,72.72
2023-04-18T08:36:09.717Z,72.53
2023-04-18T08:38:36.173Z,72.50
2023-04-18T08:41:02.630Z,72.30
2023-04-18T08:43:31.026Z,72.05
2023-04-18T08:45:59.378Z,72.68
2023-04-18T08:48:28.169Z,72.27
2023-04-18T08:50:58.646Z,72.05
2023-04-18T08:53:26.696Z,72.50
2023-04-18T08:55:56.936Z,72.41
2023-04-18T08:58:24.150Z,73.47
2023-04-18T09:00:52.742Z,72.55
2023-04-18T09:03:40.088Z,72.49
2023-04-18T09:06:13.517Z,72.85
2023-04-18T09:08:43.942Z,73.16
2023-04-18T09:11:24.349Z,72.94
2023-04-18T09:13:51.709Z,72.73
2023-04-18T09:16:22.302Z,73.20
2023-04-18T09:19:08.636Z,74.02
2023-04-18T09:21:38.676Z,73.54
2023-04-18T09:24:22.186Z,73.41
2023-04-18T09:26:49.797Z,73.71
2023-04-18T09:29:18.379Z,73.62
2023-04-18T09:32:01.266Z,74.30
2023-04-18T09:34:29.007Z,74.26
2023-04-18T09:37:09.886Z,74.46
2023-04-18T09:39:42.058Z,74.80
2023-04-18T09:42:10.334Z,74.46
2023-04-18T09:44:38.191Z,73.62
2023-04-18T09:47:06.353Z,74.08
2023-04-18T09:49:32.818Z,74.29
2023-04-18T09:52:00.396Z,74.27
2023-04-18T09:54:32.106Z,74.04
2023-04-18T09:57:00.796Z,74.64
2023-04-18T09:59:35.623Z,74.48
2023-04-18T10:02:05.373Z,74.06
2023-04-18T10:04:33.703Z,74.79
2023-04-18T10:07:01.768Z,74.00
2023-04-18T10:09:33.033Z,74.29
2023-04-18T10:12:02.109Z,73.76
2023-04-18T10:14:32.840Z,73.88
2023-04-18T10:16:59.966Z,74.31
2023-04-18T10:19:28.520Z,73.41
2023-04-18T10:21:57.188Z,72.50
2023-04-18T10:24:49.496Z,73.26
2023-04-18T10:27:17.607Z,72.41
2023-04-18T10:29:48.022Z,71.40
2023-04-18T10:32:14.733Z,72.10
2023-04-18T10:34:41.340Z,72.83
2023-04-18T10:37:07.853Z,72.61
2023-04-18T10:39:50.863Z,71.97
2023-04-18T10:42:17.373Z,71.57
2023-04-18T10:44:43.838Z,71.73
2023-04-18T10:47:10.235Z,70.37
2023-04-18T10:49:36.892Z,70.25
2023-04-18T10:52:05.869Z,70.49
2023-04-18T10:54:38.760Z,69.29
2023-04-18T10:57:07.559Z,68.89
2023-04-18T10:59:37.315Z,69.37
2023-04-18T11:02:24.024Z,69.97
2023-04-18T11:04:55.290Z,70.79
2023-04-18T11:07:48.781Z,68.72
2023-04-18T11:10:24.534Z,68.83
2023-04-18T11:12:51.540Z,68.95
2023-04-18T11:15:21.526Z,67.59
2023-04-18T11:18:02.534Z,68.44
2023-04-18T11:20:37.399Z,69.66
2023-04-18T11:23:03.838Z,67.23
2023-04-18T11:25:32.313Z,67.86
2023-04-18T11:28:00.706Z,67.11
2023-04-18T11:30:28.465Z,66.62
2023-04-18T11:32:55.916Z,65.16
2023-04-18T11:35:22.577Z,67.16
2023-04-18T11:37:50.177Z,66.60
2023-04-18T11:40:16.645Z,65.56
2023-04-18T11:42:43.299Z,66.15
2023-04-18T11:45:11.602Z,65.01
2023-04-18T11:47:38.597Z,65.33
2023-04-18T11:50:07.610Z,66.44
2023-04-18T11:52:35.559Z,65.69
2023-04-18T11:55:21.135Z,65.17
2023-04-18T11:57:55.670Z,65.83
2023-04-18T12:00:34.309Z,66.14
2023-04-18T12:03:04.585Z,65.43
2023-04-18T12:05:36.273Z,64.86
2023-04-18T12:08:14.077Z,64.78
2023-04-18T12:10:48.080Z,64.74
2023-04-18T12:13:14.528Z,65.14
2023-04-18T12:15:43.789Z,63.67
2023-04-18T12:18:12.780Z,63.75
2023-04-18T12:20:50.214Z,64.76
2023-04-18T12:23:35.348Z,64.66
2023-04-18T12:26:07.186Z,63.24
2023-04-18T12:28:35.113Z,62.89
2023-04-18T12:31:02.692Z,63.73
2023-04-18T12:33:30.417Z,63.65
2023-04-18T12:35:57.278Z,63.11
2023-04-18T12:38:23.750Z,63.40
2023-04-18T12:40:51.944Z,63.62
2023-04-18T12:43:19.010Z,63.19
2023-04-18T12:45:46.798Z,62.94
2023-04-18T12:48:13.657Z,63.41
2023-04-18T12:50:40.055Z,63.26
2023-04-18T12:53:06.651Z,64.10
2023-04-18T12:55:33.434Z,62.89
2023-04-18T12:57:59.892Z,63.01
2023-04-18T13:00:30.013Z,62.09
2023-04-18T13:02:57.231Z,61.77
2023-04-18T13:05:26.019Z,61.48
2023-04-18T13:07:58.716Z,62.17
2023-04-18T13:10:31.839Z,61.18
2023-04-18T13:12:58.253Z,60.30
2023-04-18T13:15:24.749Z,60.56
2023-04-18T13:17:51.274Z,60.01
2023-04-18T13:20:17.825Z,60.04
2023-04-18T13:22:45.152Z,59.72
2023-04-18T13:25:11.802Z,59.43
2023-04-18T13:27:41.727Z,60.11
2023-04-18T13:30:10.884Z,60.52
2023-04-18T13:32:38.925Z,58.49
2023-04-18T13:35:08.171Z,58.67
2023-04-18T13:37:34.628Z,58.18
2023-04-18T13:40:01.022Z,57.16
2023-04-18T13:42:27.429Z,57.40
2023-04-18T13:44:54.344Z,57.72
2023-04-18T13:47:20.736Z,57.46
2023-04-18T13:49:47.122Z,58.97
2023-04-18T13:52:13.545Z,57.51
2023-04-18T13:54:41.202Z,57.04
2023-04-18T13:57:11.448Z,57.49
2023-04-18T13:59:42.257Z,56.70
2023-04-18T14:02:09.501Z,56.72
2023-04-18T14:04:36.626Z,56.57
2023-04-18T14:07:03.849Z,55.34
2023-04-18T14:09:30.268Z,56.38
2023-04-18T14:11:58.106Z,57.03
2023-04-18T14:14:24.683Z,56.59
2023-04-18T14:16:51.142Z,56.25
2023-04-18T14:19:17.903Z,56.62
2023-04-18T14:21:46.415Z,55.93
2023-04-18T14:24:13.253Z,57.06
2023-04-18T14:26:39.658Z,56.20
2023-04-18T14:29:06.101Z,55.66
2023-04-18T14:31:32.587Z,55.01
2023-04-18T14:33:59.035Z,55.29
2023-04-18T14:36:26.202Z,55.31
2023-04-18T14:38:52.623Z,54.89
2023-04-18T14:41:19.031Z,55.31
2023-04-18T14:43:45.434Z,54.49
2023-04-18T14:46:13.264Z,54.31
2023-04-18T14:48:39.811Z,53.85
2023-04-18T14:51:06.865Z,55.76
2023-04-18T14:53:33.448Z,55.14
2023-04-18T14:55:59.849Z,55.31
2023-04-18T14:58:26.201Z,54.12
2023-04-18T15:00:52.608Z,54.81
2023-04-18T15:03:19.303Z,54.54
2023-04-18T15:05:49.031Z,54.36
2023-04-18T15:08:16.069Z,53.95
2023-04-18T15:10:42.651Z,54.87
2023-04-18T15:13:09.733Z,52.66
2023-04-18T15:15:37.616Z,53.27
2023-04-18T15:18:04.378Z,53.35
2023-04-18T15:20:30.948Z,54.37
2023-04-18T15:22:57.383Z,54.57
2023-04-18T15:25:25.914Z,56.20
2023-04-18T15:27:52.670Z,56.06
2023-04-18T15:30:19.261Z,56.31
2023-04-18T15:32:45.819Z,55.75
2023-04-18T15:35:12.718Z,55.67
2023-04-18T15:37:39.218Z,54.56
2023-04-18T15:40:09.106Z,55.25
2023-04-18T15:42:35.726Z,54.61
2023-04-18T15:45:03.862Z,54.64
2023-04-18T15:47:31.067Z,54.45
2023-04-18T15:49:57.500Z,54.62
2023-04-18T15:52:23.856Z,55.04
2023-04-18T15:54:51.750Z,54.36
2023-04-18T15:57:18.108Z,54.53
2023-04-18T15:59:44.488Z,54.99
2023-04-18T16:02:10.956Z,55.82
2023-04-18T16:04:37.391Z,55.75
2023-04-18T16:07:03.798Z,54.92
2023-04-18T16:09:30.535Z,55.22
2023-04-18T16:11:57.591Z,55.46
2023-04-18T16:14:23.968Z,55.63
2023-04-18T16:16:50.318Z,55.65
2023-04-18T16:19:17.009Z,54.82
2023-04-18T16:21:43.367Z,55.36
2023-04-18T16:24:09.736Z,55.30
2023-04-18T16:26:36.137Z,55.11
2023-04-18T16:29:02.594Z,54.39
2023-04-18T16:31:29.031Z,55.38
2023-04-18T16:33:55.953Z,55.74
2023-04-18T16:36:22.477Z,53.52
2023-04-18T16:38:48.906Z,53.80
2023-04-18T16:41:15.383Z,54.19
2023-04-18T16:43:41.738Z,54.21
2023-04-18T16:46:08.453Z,54.05
2023-04-18T16:48:37.656Z,54.05
2023-04-18T16:51:04.471Z,54.73
2023-04-18T16:53:30.924Z,55.29
2023-04-18T16:55:57.547Z,54.68
2023-04-18T16:58:23.890Z,54.93
2023-04-18T17:00:50.346Z,56.09
2023-04-18T17:03:16.945Z,55.32
2023-04-18T17:05:43.517Z,55.62
2023-04-18T17:08:09.908Z,55.36
2023-04-18T17:10:36.342Z,56.07
2023-04-18T17:13:03.342Z,56.01
2023-04-18T17:15:29.869Z,55.67
2023-04-18T17:17:56.568Z,56.04
2023-04-18T17:20:23.561Z,56.31
2023-04-18T17:22:49.984Z,56.32
2023-04-18T17:25:16.654Z,56.99
2023-04-18T17:27:43.133Z,57.07
2023-04-18T17:30:10.070Z,57.14
2023-04-18T17:32:36.872Z,57.38
2023-04-18T17:35:06.111Z,56.99
2023-04-18T17:37:32.504Z,57.60
2023-04-18T17:40:00.253Z,57.88
2023-04-18T17:42:26.785Z,58.47
2023-04-18T17:44:53.154Z,58.00
2023-04-18T17:47:19.501Z,57.56
2023-04-18T17:49:46.277Z,58.54
2023-04-18T17:52:12.830Z,59.28
2023-04-18T17:54:39.239Z,58.91
2023-04-18T17:57:05.596Z,59.87
2023-04-18T17:59:37.437Z,60.40
2023-04-18T18:02:05.151Z,60.07
2023-04-18T18:04:31.757Z,60.40
2023-04-18T18:06:58.732Z,60.60
2023-04-18T18:09:25.168Z,60.67
2023-04-18T18:11:54.026Z,60.26
2023-04-18T18:14:21.945Z,60.58
2023-04-18T18:16:48.457Z,61.27
2023-04-18T18:19:15.225Z,61.25
2023-04-18T18:21:42.508Z,61.45
2023-04-18T18:24:09.193Z,61.85
2023-04-18T18:26:36.150Z,62.25
2023-04-18T18:29:08.990Z,62.36
2023-04-18T18:31:36.042Z,62.37
2023-04-18T18:34:02.618Z,62.40
2023-04-18T18:36:29.029Z,62.67
2023-04-18T18:38:55.479Z,62.76
2023-04-18T18:41:24.806Z,62.34
2023-04-18T18:43:51.736Z,62.45
2023-04-18T18:46:18.566Z,62.86
2023-04-18T18:48:45.024Z,62.72
2023-04-18T18:51:11.619Z,63.08
2023-04-18T18:53:40.337Z,63.32
2023-04-18T18:56:08.845Z,63.24
2023-04-18T18:58:35.852Z,64.40
2023-04-18T19:01:03.240Z,63.57
2023-04-18T19:03:29.942Z,64.19
2023-04-18T19:05:56.700Z,64.60
2023-04-18T19:08:23.506Z,64.40
2023-04-18T19:10:50.601Z,64.51
2023-04-18T19:13:21.155Z,64.33
2023-04-18T19:15:47.554Z,64.39
2023-04-18T19:18:14.986Z,64.27
2023-04-18T19:20:41.779Z,64.72
2023-04-18T19:23:08.200Z,64.85
2023-04-18T19:25:34.563Z,65.24
2023-04-18T19:28:00.930Z,65.52
2023-04-18T19:30:27.343Z,64.71
2023-04-18T19:32:53.750Z,65.00
2023-04-18T19:35:20.409Z,64.98
2023-04-18T19:37:46.867Z,64.94
2023-04-18T19:40:14.327Z,65.27
2023-04-18T19:42:40.972Z,65.20
2023-04-18T19:45:07.754Z,65.61
2023-04-18T19:47:34.203Z,65.56
2023-04-18T19:50:01.086Z,65.54
2023-04-18T19:52:27.620Z,65.66
2023-04-18T19:54:55.216Z,66.12
2023-04-18T19:57:21.773Z,65.62
2023-04-18T19:59:48.240Z,65.67
2023-04-18T20:02:14.648Z,65.56
2023-04-18T20:04:41.802Z,66.09
2023-04-18T20:07:08.381Z,66.06
2023-04-18T20:09:34.746Z,66.28
2023-04-18T20:12:02.517Z,66.86
2023-04-18T20:14:29.300Z,67.07
2023-04-18T20:16:56.506Z,67.20
2023-04-18T20:19:26.694Z,66.91
2023-04-18T20:21:53.124Z,66.93
2023-04-18T20:24:21.100Z,67.02
2023-04-18T20:26:47.876Z,67.33
2023-04-18T20:29:14.494Z,67.07
2023-04-18T20:31:42.314Z,67.25
2023-04-18T20:34:09.726Z,67.84
2023-04-18T20:36:41.266Z,67.83
2023-04-18T20:39:12.200Z,67.55
2023-04-18T20:41:46.522Z,68.00
2023-04-18T20:44:13.809Z,67.77
2023-04-18T20:46:40.882Z,67.22
2023-04-18T20:49:08.281Z,67.83
2023-04-18T20:51:35.677Z,67.90
2023-04-18T20:54:02.253Z,68.07
2023-04-18T20:56:28.914Z,68.13
2023-04-18T20:58:55.515Z,68.21
2023-04-18T21:01:22.440Z,68.19
2023-04-18T21:03:49.377Z,68.47
2023-04-18T21:06:15.985Z,67.58
2023-04-18T21:08:42.378Z,67.34
2023-04-18T21:11:08.754Z,67.62
2023-04-18T21:13:35.356Z,67.58
2023-04-18T21:16:03.396Z,68.04
2023-04-18T21:18:30.198Z,67.33
2023-04-18T21:20:56.553Z,67.63
2023-04-18T21:23:23.508Z,67.17
2023-04-18T21:25:50.423Z,67.51
2023-04-18T21:28:20.192Z,67.66
2023-04-18T21:30:46.821Z,67.75
2023-04-18T21:33:13.750Z,67.74
2023-04-18T21:35:40.187Z,68.23
2023-04-18T21:38:06.550Z,67.82
2023-04-18T21:40:33.290Z,68.39
2023-04-18T21:42:59.718Z,67.89
2023-04-18T21:45:26.269Z,68.05
2023-04-18T21:47:52.848Z,68.08
2023-04-18T21:50:19.430Z,68.28
2023-04-18T21:52:45.865Z,68.29
2023-04-18T21:55:12.320Z,68.68
2023-04-18T21:57:38.689Z,68.44
2023-04-18T22:00:08.513Z,68.85
2023-04-18T22:02:36.600Z,68.33
2023-04-18T22:05:03.174Z,68.64
2023-04-18T22:07:29.794Z,68.62
2023-04-18T22:09:58.415Z,68.69
2023-04-18T22:12:26.227Z,68.73
2023-04-18T22:14:52.740Z,69.09
2023-04-18T22:17:19.233Z,68.74
2023-04-18T22:19:47.138Z,69.21
2023-04-18T22:22:13.502Z,69.90
2023-04-18T22:24:39.907Z,69.69
2023-04-18T22:27:06.327Z,69.70
2023-04-18T22:29:32.971Z,69.84
2023-04-18T22:31:59.320Z,69.83
2023-04-18T22:34:25.728Z,69.58
2023-04-18T22:36:52.085Z,69.73
2023-04-18T22:39:18.472Z,69.91
2023-04-18T22:41:44.852Z,69.93
2023-04-18T22:44:11.228Z,70.43
2023-04-18T22:46:38.471Z,70.16
2023-04-18T22:49:05.446Z,70.45
2023-04-18T22:51:32.465Z,70.57
2023-04-18T22:53:58.850Z,70.50
2023-04-18T22:56:25.393Z,70.60
2023-04-18T22:58:51.768Z,70.30
2023-04-18T23:01:18.480Z,70.53
2023-04-18T23:03:45.042Z,70.58
2023-04-18T23:06:11.693Z,70.47
2023-04-18T23:08:38.166Z,70.71
2023-04-18T23:11:04.591Z,70.60
2023-04-18T23:13:30.959Z,70.83
2023-04-18T23:15:57.353Z,70.81
2023-04-18T23:18:23.828Z,70.37
2023-04-18T23:20:50.277Z,70.70
2023-04-18T23:23:16.720Z,70.83
2023-04-18T23:25:44.030Z,70.88
2023-04-18T23:28:10.587Z,71.04
2023-04-18T23:30:37.171Z,71.09
2023-04-18T23:33:03.752Z,70.80
2023-04-18T23:35:30.398Z,71.25
2023-04-18T23:37:57.233Z,71.00
2023-04-18T23:40:23.733Z,71.07
2023-04-18T23:42:50.164Z,71.57
2023-04-18T23:45:16.636Z,72.01
2023-04-18T23:47:43.329Z,71.72
2023-04-18T23:50:10.157Z,71.93
2023-04-18T23:52:38.068Z,71.74
2023-04-18T23:55:04.778Z,72.48
2023-04-18T23:57:31.207Z,72.65
2023-04-18T23:59:57.808Z,73.07
